sensor_id;sensor_type;location;lat;lon;timestamp;pressure;altitude;pressure_sealevel;temperature;humidity
550;BME280;20066;48.764;9.176;2024-02-23T00:02:01;96258.28;;;7.62;67.64
550;BME280;20066;48.764;9.176;2024-02-23T00:04:29;96262.44;;;8.02;66.73
550;BME280;20066;48.764;9.176;2024-02-23T00:06:57;96268.66;;;7.36;67.55
550;BME280;20066;48.764;9.176;2024-02-23T00:09:25;96257.31;;;7.09;68.77
550;BME280;20066;48.764;9.176;2024-02-23T00:11:54;96265.22;;;7.16;68.99
550;BME280;20066;48.764;9.176;2024-02-23T00:14:23;96258.19;;;8.05;66.10
550;BME280;20066;48.764;9.176;2024-02-23T00:16:52;96252.22;;;7.38;68.08
550;BME280;20066;48.764;9.176;2024-02-23T00:19:20;96258.59;;;6.74;69.66
550;BME280;20066;48.764;9.176;2024-02-23T00:21:49;96273.00;;;7.50;68.59
550;BME280;20066;48.764;9.176;2024-02-23T00:24:19;96276.50;;;8.06;66.42
550;BME280;20066;48.764;9.176;2024-02-23T00:26:48;96289.56;;;6.98;69.04
550;BME280;20066;48.764;9.176;2024-02-23T00:29:19;96280.38;;;6.99;69.52
550;BME280;20066;48.764;9.176;2024-02-23T00:31:48;96282.94;;;6.80;69.52
550;BME280;20066;48.764;9.176;2024-02-23T00:34:16;96300.34;;;6.91;69.09
550;BME280;20066;48.764;9.176;2024-02-23T00:36:44;96304.28;;;7.53;68.30
550;BME280;20066;48.764;9.176;2024-02-23T00:39:12;96305.53;;;7.02;68.60
550;BME280;20066;48.764;9.176;2024-02-23T00:41:41;96315.03;;;7.50;68.55
550;BME280;20066;48.764;9.176;2024-02-23T00:44:09;96307.75;;;7.93;66.67
550;BME280;20066;48.764;9.176;2024-02-23T00:46:38;96301.41;;;7.44;67.07
550;BME280;20066;48.764;9.176;2024-02-23T00:49:06;96308.44;;;7.34;67.86
550;BME280;20066;48.764;9.176;2024-02-23T00:51:34;96295.47;;;6.86;68.92
550;BME280;20066;48.764;9.176;2024-02-23T00:54:02;96297.06;;;7.50;67.72
550;BME280;20066;48.764;9.176;2024-02-23T00:56:35;96304.13;;;7.41;67.59
550;BME280;20066;48.764;9.176;2024-02-23T00:59:16;96316.88;;;7.76;66.39
550;BME280;20066;48.764;9.176;2024-02-23T01:01:46;96324.94;;;7.06;67.77
550;BME280;20066;48.764;9.176;2024-02-23T01:04:14;96329.88;;;7.54;67.33
550;BME280;20066;48.764;9.176;2024-02-23T01:06:42;96326.81;;;7.56;66.76
550;BME280;20066;48.764;9.176;2024-02-23T01:09:10;96325.56;;;7.60;66.73
550;BME280;20066;48.764;9.176;2024-02-23T01:11:40;96334.72;;;7.16;67.92
550;BME280;20066;48.764;9.176;2024-02-23T01:14:08;96340.44;;;7.61;66.42
550;BME280;20066;48.764;9.176;2024-02-23T01:16:36;96333.47;;;7.67;66.52
550;BME280;20066;48.764;9.176;2024-02-23T01:19:05;96327.94;;;7.98;65.79
550;BME280;20066;48.764;9.176;2024-02-23T01:21:34;96310.31;;;7.57;66.92
550;BME280;20066;48.764;9.176;2024-02-23T01:24:02;96306.78;;;8.23;64.60
550;BME280;20066;48.764;9.176;2024-02-23T01:26:31;96324.28;;;8.08;65.24
550;BME280;20066;48.764;9.176;2024-02-23T01:28:59;96313.72;;;7.15;66.96
550;BME280;20066;48.764;9.176;2024-02-23T01:31:27;96324.06;;;7.36;65.53
550;BME280;20066;48.764;9.176;2024-02-23T01:33:55;96339.56;;;7.25;66.80
550;BME280;20066;48.764;9.176;2024-02-23T01:36:24;96327.78;;;7.85;65.48
550;BME280;20066;48.764;9.176;2024-02-23T01:38:52;96333.94;;;7.82;65.29
550;BME280;20066;48.764;9.176;2024-02-23T01:41:20;96333.19;;;7.82;64.80
550;BME280;20066;48.764;9.176;2024-02-23T01:43:50;96339.28;;;7.62;65.59
550;BME280;20066;48.764;9.176;2024-02-23T01:46:18;96343.81;;;7.65;65.23
550;BME280;20066;48.764;9.176;2024-02-23T01:48:47;96333.88;;;7.19;66.61
550;BME280;20066;48.764;9.176;2024-02-23T01:51:16;96344.59;;;7.86;65.42
550;BME280;20066;48.764;9.176;2024-02-23T01:53:45;96339.44;;;7.75;65.30
550;BME280;20066;48.764;9.176;2024-02-23T01:56:14;96334.75;;;7.13;67.11
550;BME280;20066;48.764;9.176;2024-02-23T01:58:46;96336.00;;;7.74;66.18
550;BME280;20066;48.764;9.176;2024-02-23T02:01:14;96341.09;;;7.46;66.22
550;BME280;20066;48.764;9.176;2024-02-23T02:03:43;96340.97;;;7.06;68.30
550;BME280;20066;48.764;9.176;2024-02-23T02:06:11;96341.50;;;7.21;67.09
550;BME280;20066;48.764;9.176;2024-02-23T02:08:42;96347.63;;;6.94;68.08
550;BME280;20066;48.764;9.176;2024-02-23T02:11:12;96351.41;;;7.47;66.48
550;BME280;20066;48.764;9.176;2024-02-23T02:13:40;96347.91;;;7.50;66.30
550;BME280;20066;48.764;9.176;2024-02-23T02:16:11;96358.25;;;8.11;64.16
550;BME280;20066;48.764;9.176;2024-02-23T02:18:42;96362.72;;;7.98;64.95
550;BME280;20066;48.764;9.176;2024-02-23T02:21:11;96365.19;;;7.46;65.58
550;BME280;20066;48.764;9.176;2024-02-23T02:23:39;96366.94;;;7.56;65.05
550;BME280;20066;48.764;9.176;2024-02-23T02:26:08;96373.19;;;7.46;65.92
550;BME280;20066;48.764;9.176;2024-02-23T02:28:37;96364.59;;;7.34;65.37
550;BME280;20066;48.764;9.176;2024-02-23T02:31:05;96365.91;;;7.69;64.69
550;BME280;20066;48.764;9.176;2024-02-23T02:33:33;96360.97;;;7.68;64.23
550;BME280;20066;48.764;9.176;2024-02-23T02:36:02;96360.09;;;7.28;65.41
550;BME280;20066;48.764;9.176;2024-02-23T02:38:31;96366.34;;;7.45;65.78
550;BME280;20066;48.764;9.176;2024-02-23T02:41:00;96371.69;;;7.88;64.23
550;BME280;20066;48.764;9.176;2024-02-23T02:43:28;96371.69;;;7.68;64.07
550;BME280;20066;48.764;9.176;2024-02-23T02:45:57;96353.00;;;7.18;65.04
550;BME280;20066;48.764;9.176;2024-02-23T02:48:25;96348.94;;;7.10;65.68
550;BME280;20066;48.764;9.176;2024-02-23T02:50:53;96353.16;;;6.80;66.02
550;BME280;20066;48.764;9.176;2024-02-23T02:53:23;96343.13;;;7.15;64.83
550;BME280;20066;48.764;9.176;2024-02-23T02:55:51;96345.44;;;6.89;66.11
550;BME280;20066;48.764;9.176;2024-02-23T02:58:19;96347.00;;;7.10;65.49
550;BME280;20066;48.764;9.176;2024-02-23T03:00:47;96351.34;;;7.27;65.26
550;BME280;20066;48.764;9.176;2024-02-23T03:03:16;96353.75;;;7.65;64.00
550;BME280;20066;48.764;9.176;2024-02-23T03:05:44;96362.50;;;7.89;62.21
550;BME280;20066;48.764;9.176;2024-02-23T03:08:12;96349.81;;;7.50;62.87
550;BME280;20066;48.764;9.176;2024-02-23T03:10:40;96335.47;;;7.63;61.73
550;BME280;20066;48.764;9.176;2024-02-23T03:13:08;96345.53;;;7.32;61.92
550;BME280;20066;48.764;9.176;2024-02-23T03:15:36;96351.66;;;7.76;60.75
550;BME280;20066;48.764;9.176;2024-02-23T03:18:04;96352.09;;;7.94;59.57
550;BME280;20066;48.764;9.176;2024-02-23T03:20:37;96353.72;;;7.45;59.81
550;BME280;20066;48.764;9.176;2024-02-23T03:23:05;96338.69;;;8.14;58.22
550;BME280;20066;48.764;9.176;2024-02-23T03:25:33;96343.44;;;8.06;57.18
550;BME280;20066;48.764;9.176;2024-02-23T03:28:01;96360.56;;;7.69;57.92
550;BME280;20066;48.764;9.176;2024-02-23T03:30:30;96365.75;;;8.20;56.75
550;BME280;20066;48.764;9.176;2024-02-23T03:33:02;96365.19;;;8.28;56.52
550;BME280;20066;48.764;9.176;2024-02-23T03:35:30;96361.06;;;8.43;55.49
550;BME280;20066;48.764;9.176;2024-02-23T03:38:00;96346.56;;;7.82;57.74
550;BME280;20066;48.764;9.176;2024-02-23T03:40:29;96364.91;;;8.98;54.00
550;BME280;20066;48.764;9.176;2024-02-23T03:42:57;96371.56;;;8.74;55.01
550;BME280;20066;48.764;9.176;2024-02-23T03:45:25;96372.84;;;8.85;54.35
550;BME280;20066;48.764;9.176;2024-02-23T03:47:53;96376.31;;;7.64;57.05
550;BME280;20066;48.764;9.176;2024-02-23T03:50:21;96375.38;;;7.74;56.67
550;BME280;20066;48.764;9.176;2024-02-23T03:52:49;96378.38;;;8.19;55.23
550;BME280;20066;48.764;9.176;2024-02-23T03:55:18;96390.69;;;7.50;57.09
550;BME280;20066;48.764;9.176;2024-02-23T03:57:46;96396.44;;;7.49;57.02
550;BME280;20066;48.764;9.176;2024-02-23T04:00:15;96395.59;;;7.55;56.99
550;BME280;20066;48.764;9.176;2024-02-23T04:02:44;96392.09;;;7.58;56.19
550;BME280;20066;48.764;9.176;2024-02-23T04:05:12;96381.66;;;7.17;57.27
550;BME280;20066;48.764;9.176;2024-02-23T04:07:40;96369.69;;;7.49;56.97
550;BME280;20066;48.764;9.176;2024-02-23T04:10:09;96374.69;;;7.00;57.64
550;BME280;20066;48.764;9.176;2024-02-23T04:12:38;96382.56;;;8.20;55.38
550;BME280;20066;48.764;9.176;2024-02-23T04:15:06;96383.75;;;7.76;55.31
550;BME280;20066;48.764;9.176;2024-02-23T04:17:34;96387.19;;;7.76;55.05
550;BME280;20066;48.764;9.176;2024-02-23T04:20:07;96386.19;;;8.49;53.69
550;BME280;20066;48.764;9.176;2024-02-23T04:22:36;96383.31;;;7.34;56.35
550;BME280;20066;48.764;9.176;2024-02-23T04:25:05;96382.41;;;7.88;55.10
550;BME280;20066;48.764;9.176;2024-02-23T04:27:33;96377.53;;;7.83;54.60
550;BME280;20066;48.764;9.176;2024-02-23T04:30:03;96386.09;;;7.51;55.72
550;BME280;20066;48.764;9.176;2024-02-23T04:32:31;96384.91;;;6.75;57.40
550;BME280;20066;48.764;9.176;2024-02-23T04:34:59;96383.63;;;7.40;56.02
550;BME280;20066;48.764;9.176;2024-02-23T04:37:27;96376.34;;;6.90;56.66
550;BME280;20066;48.764;9.176;2024-02-23T04:39:57;96384.94;;;7.28;56.13
550;BME280;20066;48.764;9.176;2024-02-23T04:42:25;96397.59;;;8.14;54.62
550;BME280;20066;48.764;9.176;2024-02-23T04:44:54;96398.66;;;6.73;57.36
550;BME280;20066;48.764;9.176;2024-02-23T04:47:23;96378.06;;;7.27;55.83
550;BME280;20066;48.764;9.176;2024-02-23T04:49:52;96382.84;;;7.16;55.82
550;BME280;20066;48.764;9.176;2024-02-23T04:52:20;96380.50;;;7.42;55.69
550;BME280;20066;48.764;9.176;2024-02-23T04:54:48;96375.47;;;7.47;55.33
550;BME280;20066;48.764;9.176;2024-02-23T04:57:17;96373.22;;;7.19;55.51
550;BME280;20066;48.764;9.176;2024-02-23T04:59:45;96371.03;;;8.23;53.32
550;BME280;20066;48.764;9.176;2024-02-23T05:02:13;96357.31;;;7.35;55.32
550;BME280;20066;48.764;9.176;2024-02-23T05:04:42;96350.31;;;6.94;56.49
550;BME280;20066;48.764;9.176;2024-02-23T05:07:10;96362.31;;;7.99;53.58
550;BME280;20066;48.764;9.176;2024-02-23T05:09:38;96361.97;;;7.08;55.75
550;BME280;20066;48.764;9.176;2024-02-23T05:12:08;96355.78;;;7.81;54.08
550;BME280;20066;48.764;9.176;2024-02-23T05:14:38;96359.47;;;7.20;56.51
550;BME280;20066;48.764;9.176;2024-02-23T05:17:07;96358.78;;;6.89;57.65
550;BME280;20066;48.764;9.176;2024-02-23T05:19:35;96361.84;;;6.61;58.76
550;BME280;20066;48.764;9.176;2024-02-23T05:22:06;96371.69;;;6.94;57.91
550;BME280;20066;48.764;9.176;2024-02-23T05:24:34;96363.69;;;6.64;58.70
550;BME280;20066;48.764;9.176;2024-02-23T05:27:02;96363.84;;;6.84;58.14
550;BME280;20066;48.764;9.176;2024-02-23T05:29:30;96375.13;;;6.95;57.25
550;BME280;20066;48.764;9.176;2024-02-23T05:31:59;96378.38;;;6.49;58.17
550;BME280;20066;48.764;9.176;2024-02-23T05:34:27;96372.81;;;6.67;58.13
550;BME280;20066;48.764;9.176;2024-02-23T05:36:56;96383.56;;;6.93;57.87
550;BME280;20066;48.764;9.176;2024-02-23T05:39:26;96381.41;;;6.81;57.85
550;BME280;20066;48.764;9.176;2024-02-23T05:41:56;96392.75;;;6.58;58.99
550;BME280;20066;48.764;9.176;2024-02-23T05:44:29;96393.06;;;6.34;59.70
550;BME280;20066;48.764;9.176;2024-02-23T05:46:58;96393.13;;;6.60;58.96
550;BME280;20066;48.764;9.176;2024-02-23T05:49:26;96394.06;;;6.47;59.68
550;BME280;20066;48.764;9.176;2024-02-23T05:51:55;96394.75;;;6.51;59.94
550;BME280;20066;48.764;9.176;2024-02-23T05:54:23;96399.63;;;6.59;60.05
550;BME280;20066;48.764;9.176;2024-02-23T05:56:53;96410.13;;;6.40;60.62
550;BME280;20066;48.764;9.176;2024-02-23T05:59:21;96408.22;;;6.40;60.51
550;BME280;20066;48.764;9.176;2024-02-23T06:01:49;96397.53;;;6.44;60.96
550;BME280;20066;48.764;9.176;2024-02-23T06:04:19;96399.94;;;6.01;61.38
550;BME280;20066;48.764;9.176;2024-02-23T06:06:47;96413.00;;;5.88;61.64
550;BME280;20066;48.764;9.176;2024-02-23T06:09:16;96400.22;;;5.69;62.80
550;BME280;20066;48.764;9.176;2024-02-23T06:11:46;96407.63;;;5.92;62.22
550;BME280;20066;48.764;9.176;2024-02-23T06:14:15;96413.56;;;5.69;64.26
550;BME280;20066;48.764;9.176;2024-02-23T06:16:44;96426.31;;;5.88;63.30
550;BME280;20066;48.764;9.176;2024-02-23T06:19:12;96427.91;;;5.37;65.71
550;BME280;20066;48.764;9.176;2024-02-23T06:21:43;96436.63;;;5.45;66.57
550;BME280;20066;48.764;9.176;2024-02-23T06:24:20;96436.97;;;5.47;67.25
550;BME280;20066;48.764;9.176;2024-02-23T06:26:50;96435.09;;;5.44;68.68
550;BME280;20066;48.764;9.176;2024-02-23T06:29:27;96440.16;;;5.76;69.24
550;BME280;20066;48.764;9.176;2024-02-23T06:31:58;96426.34;;;5.43;69.92
550;BME280;20066;48.764;9.176;2024-02-23T06:34:39;96431.09;;;5.70;70.33
550;BME280;20066;48.764;9.176;2024-02-23T06:37:28;96436.19;;;5.50;70.46
550;BME280;20066;48.764;9.176;2024-02-23T06:39:58;96428.75;;;6.13;68.33
550;BME280;20066;48.764;9.176;2024-02-23T06:42:28;96421.75;;;6.26;67.69
550;BME280;20066;48.764;9.176;2024-02-23T06:45:16;96416.56;;;5.74;69.80
550;BME280;20066;48.764;9.176;2024-02-23T06:47:52;96428.84;;;6.06;69.65
550;BME280;20066;48.764;9.176;2024-02-23T06:50:35;96423.25;;;5.93;70.02
550;BME280;20066;48.764;9.176;2024-02-23T06:53:06;96425.75;;;6.41;68.49
550;BME280;20066;48.764;9.176;2024-02-23T06:55:35;96415.94;;;6.01;68.78
550;BME280;20066;48.764;9.176;2024-02-23T06:58:05;96422.69;;;6.43;67.34
550;BME280;20066;48.764;9.176;2024-02-23T07:00:52;96426.44;;;6.79;66.43
550;BME280;20066;48.764;9.176;2024-02-23T07:03:23;96425.59;;;6.89;65.29
550;BME280;20066;48.764;9.176;2024-02-23T07:05:52;96422.38;;;7.75;62.23
550;BME280;20066;48.764;9.176;2024-02-23T07:08:27;96432.09;;;7.42;63.82
550;BME280;20066;48.764;9.176;2024-02-23T07:11:00;96432.66;;;7.03;64.49
550;BME280;20066;48.764;9.176;2024-02-23T07:13:32;96421.72;;;7.21;63.58
550;BME280;20066;48.764;9.176;2024-02-23T07:16:05;96429.25;;;7.99;61.65
550;BME280;20066;48.764;9.176;2024-02-23T07:18:34;96433.47;;;8.60;60.14
550;BME280;20066;48.764;9.176;2024-02-23T07:21:03;96442.16;;;8.04;61.31
550;BME280;20066;48.764;9.176;2024-02-23T07:23:35;96433.09;;;7.52;63.05
550;BME280;20066;48.764;9.176;2024-02-23T07:26:09;96447.69;;;6.59;64.62
550;BME280;20066;48.764;9.176;2024-02-23T07:28:59;96447.19;;;8.42;60.45
550;BME280;20066;48.764;9.176;2024-02-23T07:38:31;96441.22;;;8.14;60.01
550;BME280;20066;48.764;9.176;2024-02-23T07:41:33;96442.75;;;8.95;57.47
550;BME280;20066;48.764;9.176;2024-02-23T07:44:41;96432.75;;;7.23;62.87
550;BME280;20066;48.764;9.176;2024-02-23T07:47:39;96430.28;;;7.82;60.37
550;BME280;20066;48.764;9.176;2024-02-23T07:50:35;96434.50;;;7.33;62.44
550;BME280;20066;48.764;9.176;2024-02-23T07:53:22;96435.72;;;6.71;64.09
550;BME280;20066;48.764;9.176;2024-02-23T08:02:23;96453.97;;;6.08;64.99
550;BME280;20066;48.764;9.176;2024-02-23T08:04:52;96458.03;;;7.18;62.67
550;BME280;20066;48.764;9.176;2024-02-23T08:07:20;96465.53;;;6.66;64.32
550;BME280;20066;48.764;9.176;2024-02-23T08:09:51;96458.56;;;6.76;64.65
550;BME280;20066;48.764;9.176;2024-02-23T08:12:28;96453.03;;;6.93;62.82
550;BME280;20066;48.764;9.176;2024-02-23T08:14:58;96445.59;;;7.82;60.00
550;BME280;20066;48.764;9.176;2024-02-23T08:20:23;96449.97;;;6.61;62.85
550;BME280;20066;48.764;9.176;2024-02-23T08:23:06;96446.06;;;6.99;62.51
550;BME280;20066;48.764;9.176;2024-02-23T08:26:02;96445.97;;;7.07;62.08
550;BME280;20066;48.764;9.176;2024-02-23T08:28:58;96446.84;;;7.00;61.87
550;BME280;20066;48.764;9.176;2024-02-23T08:31:58;96449.47;;;7.30;61.62
550;BME280;20066;48.764;9.176;2024-02-23T08:34:53;96448.13;;;8.12;58.84
550;BME280;20066;48.764;9.176;2024-02-23T08:37:39;96435.94;;;6.53;61.78
550;BME280;20066;48.764;9.176;2024-02-23T08:40:19;96443.09;;;6.60;61.98
550;BME280;20066;48.764;9.176;2024-02-23T08:43:13;96450.19;;;6.74;61.71
550;BME280;20066;48.764;9.176;2024-02-23T08:46:06;96442.88;;;6.81;61.01
550;BME280;20066;48.764;9.176;2024-02-23T08:49:03;96452.84;;;6.43;62.42
550;BME280;20066;48.764;9.176;2024-02-23T08:51:46;96462.97;;;6.93;61.18
550;BME280;20066;48.764;9.176;2024-02-23T08:54:40;96463.47;;;6.81;61.35
550;BME280;20066;48.764;9.176;2024-02-23T08:57:25;96456.69;;;6.73;61.46
550;BME280;20066;48.764;9.176;2024-02-23T08:59:55;96452.16;;;6.36;61.42
550;BME280;20066;48.764;9.176;2024-02-23T09:02:56;96459.53;;;6.58;60.29
550;BME280;20066;48.764;9.176;2024-02-23T09:05:54;96443.19;;;7.41;57.85
550;BME280;20066;48.764;9.176;2024-02-23T09:08:51;96450.00;;;6.91;59.33
550;BME280;20066;48.764;9.176;2024-02-23T09:15:21;96455.84;;;6.83;59.12
550;BME280;20066;48.764;9.176;2024-02-23T09:18:22;96458.47;;;7.13;58.50
550;BME280;20066;48.764;9.176;2024-02-23T09:21:38;96456.34;;;6.71;59.09
550;BME280;20066;48.764;9.176;2024-02-23T09:24:34;96454.00;;;6.73;59.37
550;BME280;20066;48.764;9.176;2024-02-23T09:27:34;96461.94;;;7.10;58.15
550;BME280;20066;48.764;9.176;2024-02-23T09:36:47;96467.69;;;7.62;55.91
550;BME280;20066;48.764;9.176;2024-02-23T09:39:15;96473.84;;;7.59;56.07
550;BME280;20066;48.764;9.176;2024-02-23T09:41:43;96472.09;;;8.19;54.91
550;BME280;20066;48.764;9.176;2024-02-23T09:44:13;96468.88;;;7.61;55.87
550;BME280;20066;48.764;9.176;2024-02-23T09:46:43;96478.16;;;7.53;54.88
550;BME280;20066;48.764;9.176;2024-02-23T09:49:11;96478.88;;;8.67;53.24
550;BME280;20066;48.764;9.176;2024-02-23T09:51:40;96465.16;;;8.84;52.64
550;BME280;20066;48.764;9.176;2024-02-23T09:54:10;96455.84;;;7.10;55.59
550;BME280;20066;48.764;9.176;2024-02-23T09:56:39;96467.56;;;8.16;52.74
550;BME280;20066;48.764;9.176;2024-02-23T09:59:07;96470.16;;;8.63;52.84
550;BME280;20066;48.764;9.176;2024-02-23T10:01:35;96471.84;;;11.25;46.68
550;BME280;20066;48.764;9.176;2024-02-23T10:04:04;96472.69;;;11.09;45.67
550;BME280;20066;48.764;9.176;2024-02-23T10:06:33;96466.34;;;9.36;50.21
550;BME280;20066;48.764;9.176;2024-02-23T10:09:01;96473.06;;;8.91;50.86
550;BME280;20066;48.764;9.176;2024-02-23T10:11:32;96471.69;;;9.19;50.82
550;BME280;20066;48.764;9.176;2024-02-23T10:14:00;96463.38;;;7.45;54.60
550;BME280;20066;48.764;9.176;2024-02-23T10:16:28;96470.72;;;7.88;53.50
550;BME280;20066;48.764;9.176;2024-02-23T10:18:57;96475.78;;;7.82;53.12
550;BME280;20066;48.764;9.176;2024-02-23T10:21:25;96476.03;;;7.68;54.26
550;BME280;20066;48.764;9.176;2024-02-23T10:23:53;96473.91;;;7.02;54.98
550;BME280;20066;48.764;9.176;2024-02-23T10:26:21;96481.31;;;7.95;53.42
550;BME280;20066;48.764;9.176;2024-02-23T10:28:51;96482.63;;;7.87;53.74
550;BME280;20066;48.764;9.176;2024-02-23T10:31:19;96479.59;;;7.85;53.45
550;BME280;20066;48.764;9.176;2024-02-23T10:33:47;96470.31;;;7.66;53.49
550;BME280;20066;48.764;9.176;2024-02-23T10:36:19;96484.13;;;8.74;52.30
550;BME280;20066;48.764;9.176;2024-02-23T10:38:52;96482.56;;;9.12;50.33
550;BME280;20066;48.764;9.176;2024-02-23T10:41:24;96473.78;;;8.33;51.37
550;BME280;20066;48.764;9.176;2024-02-23T10:43:55;96471.13;;;8.52;50.94
550;BME280;20066;48.764;9.176;2024-02-23T10:46:26;96472.69;;;8.89;50.26
550;BME280;20066;48.764;9.176;2024-02-23T10:48:55;96480.66;;;9.13;50.09
550;BME280;20066;48.764;9.176;2024-02-23T10:51:25;96473.16;;;9.04;50.08
550;BME280;20066;48.764;9.176;2024-02-23T10:53:55;96464.19;;;8.12;51.29
550;BME280;20066;48.764;9.176;2024-02-23T10:56:24;96476.94;;;9.07;50.58
550;BME280;20066;48.764;9.176;2024-02-23T10:58:54;96462.34;;;9.76;48.46
550;BME280;20066;48.764;9.176;2024-02-23T11:01:24;96464.00;;;9.21;48.76
550;BME280;20066;48.764;9.176;2024-02-23T11:03:53;96463.03;;;9.64;48.52
550;BME280;20066;48.764;9.176;2024-02-23T11:06:27;96461.22;;;10.22;47.09
550;BME280;20066;48.764;9.176;2024-02-23T11:09:04;96454.59;;;10.27;47.04
550;BME280;20066;48.764;9.176;2024-02-23T11:11:32;96457.72;;;10.25;47.20
550;BME280;20066;48.764;9.176;2024-02-23T11:14:07;96456.00;;;8.62;50.70
550;BME280;20066;48.764;9.176;2024-02-23T11:16:39;96450.63;;;10.31;46.42
550;BME280;20066;48.764;9.176;2024-02-23T11:19:09;96453.38;;;9.66;47.83
550;BME280;20066;48.764;9.176;2024-02-23T11:21:38;96454.34;;;8.88;48.93
550;BME280;20066;48.764;9.176;2024-02-23T11:24:07;96451.59;;;8.52;49.90
550;BME280;20066;48.764;9.176;2024-02-23T11:26:40;96444.25;;;9.64;47.80
550;BME280;20066;48.764;9.176;2024-02-23T11:29:12;96447.69;;;8.37;51.23
550;BME280;20066;48.764;9.176;2024-02-23T11:31:46;96447.50;;;9.88;48.20
550;BME280;20066;48.764;9.176;2024-02-23T11:34:21;96453.59;;;8.48;50.16
550;BME280;20066;48.764;9.176;2024-02-23T11:36:51;96436.47;;;9.01;49.24
550;BME280;20066;48.764;9.176;2024-02-23T11:39:20;96434.50;;;9.86;47.15
550;BME280;20066;48.764;9.176;2024-02-23T11:41:49;96444.56;;;9.82;47.91
550;BME280;20066;48.764;9.176;2024-02-23T11:44:19;96445.50;;;10.78;45.79
550;BME280;20066;48.764;9.176;2024-02-23T11:46:47;96445.50;;;10.37;45.63
550;BME280;20066;48.764;9.176;2024-02-23T11:49:15;96448.88;;;10.54;45.84
550;BME280;20066;48.764;9.176;2024-02-23T11:51:43;96443.22;;;10.35;46.66
550;BME280;20066;48.764;9.176;2024-02-23T11:54:12;96434.75;;;10.21;47.01
550;BME280;20066;48.764;9.176;2024-02-23T11:56:40;96427.19;;;10.03;47.06
550;BME280;20066;48.764;9.176;2024-02-23T11:59:08;96429.28;;;8.78;49.86
550;BME280;20066;48.764;9.176;2024-02-23T12:01:38;96429.03;;;9.74;47.74
550;BME280;20066;48.764;9.176;2024-02-23T12:04:07;96435.91;;;9.75;48.01
550;BME280;20066;48.764;9.176;2024-02-23T12:06:35;96437.78;;;9.45;48.52
550;BME280;20066;48.764;9.176;2024-02-23T12:09:03;96431.31;;;10.36;46.29
550;BME280;20066;48.764;9.176;2024-02-23T12:11:32;96432.28;;;10.97;44.87
550;BME280;20066;48.764;9.176;2024-02-23T12:14:00;96428.94;;;10.10;46.29
550;BME280;20066;48.764;9.176;2024-02-23T12:16:29;96419.06;;;9.09;48.82
550;BME280;20066;48.764;9.176;2024-02-23T12:18:58;96420.16;;;10.51;46.53
550;BME280;20066;48.764;9.176;2024-02-23T12:21:28;96407.25;;;9.39;48.47
550;BME280;20066;48.764;9.176;2024-02-23T12:23:56;96405.63;;;9.74;47.80
550;BME280;20066;48.764;9.176;2024-02-23T12:26:24;96411.63;;;9.33;48.47
550;BME280;20066;48.764;9.176;2024-02-23T12:28:52;96410.22;;;10.35;47.08
550;BME280;20066;48.764;9.176;2024-02-23T12:31:24;96416.03;;;10.75;45.91
550;BME280;20066;48.764;9.176;2024-02-23T12:33:53;96411.97;;;8.63;49.98
550;BME280;20066;48.764;9.176;2024-02-23T12:36:23;96407.50;;;9.77;47.74
550;BME280;20066;48.764;9.176;2024-02-23T12:38:51;96415.75;;;11.11;45.51
550;BME280;20066;48.764;9.176;2024-02-23T12:41:19;96411.09;;;8.70;49.72
550;BME280;20066;48.764;9.176;2024-02-23T12:43:47;96410.22;;;9.90;48.17
550;BME280;20066;48.764;9.176;2024-02-23T12:46:15;96415.06;;;10.69;45.29
550;BME280;20066;48.764;9.176;2024-02-23T12:48:43;96411.06;;;10.03;46.24
550;BME280;20066;48.764;9.176;2024-02-23T12:51:11;96416.91;;;9.37;48.71
550;BME280;20066;48.764;9.176;2024-02-23T12:53:42;96404.72;;;9.00;50.03
550;BME280;20066;48.764;9.176;2024-02-23T12:56:11;96406.56;;;9.35;49.85
550;BME280;20066;48.764;9.176;2024-02-23T12:58:41;96402.44;;;8.98;50.56
550;BME280;20066;48.764;9.176;2024-02-23T13:01:10;96402.28;;;9.05;50.53
550;BME280;20066;48.764;9.176;2024-02-23T13:03:39;96398.53;;;9.03;50.09
550;BME280;20066;48.764;9.176;2024-02-23T13:06:08;96405.22;;;9.43;50.21
550;BME280;20066;48.764;9.176;2024-02-23T13:08:36;96402.94;;;9.74;49.84
550;BME280;20066;48.764;9.176;2024-02-23T13:11:07;96412.84;;;9.12;50.31
550;BME280;20066;48.764;9.176;2024-02-23T13:13:35;96406.53;;;8.47;52.76
550;BME280;20066;48.764;9.176;2024-02-23T13:16:05;96397.66;;;8.50;52.56
550;BME280;20066;48.764;9.176;2024-02-23T13:18:35;96403.47;;;8.68;52.08
550;BME280;20066;48.764;9.176;2024-02-23T13:21:03;96401.13;;;9.39;50.66
550;BME280;20066;48.764;9.176;2024-02-23T13:23:32;96405.84;;;8.43;52.37
550;BME280;20066;48.764;9.176;2024-02-23T13:26:00;96411.81;;;8.90;51.89
550;BME280;20066;48.764;9.176;2024-02-23T13:28:31;96412.47;;;9.46;51.17
550;BME280;20066;48.764;9.176;2024-02-23T13:30:59;96407.56;;;8.73;52.40
550;BME280;20066;48.764;9.176;2024-02-23T13:33:26;96402.75;;;8.64;52.64
550;BME280;20066;48.764;9.176;2024-02-23T13:35:54;96409.16;;;9.06;51.74
550;BME280;20066;48.764;9.176;2024-02-23T13:38:23;96396.94;;;8.10;53.90
550;BME280;20066;48.764;9.176;2024-02-23T13:40:51;96394.66;;;8.48;53.31
550;BME280;20066;48.764;9.176;2024-02-23T13:43:19;96391.56;;;9.05;52.34
550;BME280;20066;48.764;9.176;2024-02-23T13:45:52;96386.84;;;9.74;50.85
550;BME280;20066;48.764;9.176;2024-02-23T13:48:21;96378.75;;;8.41;53.20
550;BME280;20066;48.764;9.176;2024-02-23T13:50:49;96373.66;;;8.82;52.58
550;BME280;20066;48.764;9.176;2024-02-23T13:53:17;96377.94;;;8.80;52.41
550;BME280;20066;48.764;9.176;2024-02-23T13:55:46;96365.72;;;8.79;53.27
550;BME280;20066;48.764;9.176;2024-02-23T13:58:14;96368.84;;;9.58;51.10
550;BME280;20066;48.764;9.176;2024-02-23T14:00:42;96366.84;;;10.49;48.73
550;BME280;20066;48.764;9.176;2024-02-23T14:03:16;96358.47;;;8.20;53.99
550;BME280;20066;48.764;9.176;2024-02-23T14:05:47;96351.50;;;8.42;54.05
550;BME280;20066;48.764;9.176;2024-02-23T14:08:15;96347.41;;;9.26;51.74
550;BME280;20066;48.764;9.176;2024-02-23T14:10:45;96351.16;;;9.12;51.80
550;BME280;20066;48.764;9.176;2024-02-23T14:13:14;96343.88;;;9.13;51.93
550;BME280;20066;48.764;9.176;2024-02-23T14:15:43;96346.69;;;9.71;50.79
550;BME280;20066;48.764;9.176;2024-02-23T14:18:13;96354.25;;;9.88;50.43
550;BME280;20066;48.764;9.176;2024-02-23T14:20:41;96356.88;;;9.92;50.38
550;BME280;20066;48.764;9.176;2024-02-23T14:23:09;96344.78;;;9.55;50.92